createdAt,value
2024-02-13T00:00:43.010Z,73.40
2024-02-13T00:03:10.913Z,73.31
2024-02-13T00:05:40.481Z,73.42
2024-02-13T00:08:07.831Z,73.60
2024-02-13T00:10:34.566Z,73.89
2024-02-13T00:13:01.063Z,73.98
2024-02-13T00:15:27.542Z,74.14
2024-02-13T00:17:54.076Z,74.01
2024-02-13T00:20:20.950Z,73.99
2024-02-13T00:22:51.057Z,74.10
2024-02-13T00:25:19.567Z,74.21
2024-02-13T00:27:46.377Z,74.30
2024-02-13T00:30:13.711Z,74.25
2024-02-13T00:32:40.499Z,74.26
2024-02-13T00:35:09.998Z,74.13
2024-02-13T00:37:38.077Z,74.44
2024-02-13T00:40:11.169Z,74.44
2024-02-13T00:42:38.035Z,74.63
2024-02-13T00:45:08.570Z,74.73
2024-02-13T00:47:35.701Z,74.75
2024-02-13T00:50:03.010Z,74.56
2024-02-13T00:52:29.867Z,74.60
2024-02-13T00:54:57.500Z,74.42
2024-02-13T00:57:25.423Z,74.22
2024-02-13T00:59:52.277Z,74.03
2024-02-13T01:02:19.098Z,74.27
2024-02-13T01:04:45.800Z,74.31
2024-02-13T01:07:12.338Z,74.23
2024-02-13T01:09:38.828Z,74.02
2024-02-13T01:12:05.421Z,74.25
2024-02-13T01:14:32.510Z,74.12
2024-02-13T01:16:59.194Z,74.20
2024-02-13T01:19:25.835Z,74.32
2024-02-13T01:21:52.393Z,74.39
2024-02-13T01:24:18.854Z,74.36
2024-02-13T01:26:46.137Z,73.99
2024-02-13T01:29:13.250Z,73.86
2024-02-13T01:31:39.822Z,74.09
2024-02-13T01:36:40.776Z,74.02
2024-02-13T01:39:07.300Z,74.26
2024-02-13T01:41:33.878Z,74.42
2024-02-13T01:44:01.115Z,74.53
2024-02-13T01:46:29.869Z,74.53
2024-02-13T01:49:00.004Z,74.65
2024-02-13T01:51:30.761Z,74.55
2024-02-13T01:54:02.915Z,74.79
2024-02-13T01:56:32.108Z,74.51
2024-02-13T01:58:58.877Z,74.35
2024-02-13T02:01:28.625Z,74.47
2024-02-13T02:03:59.853Z,74.80
2024-02-13T02:06:27.171Z,74.65
2024-02-13T02:08:54.419Z,74.66
2024-02-13T02:11:21.698Z,74.79
2024-02-13T02:13:48.438Z,74.88
2024-02-13T02:16:14.895Z,74.86
2024-02-13T02:18:42.373Z,74.90
2024-02-13T02:21:09.249Z,74.91
2024-02-13T02:23:36.257Z,74.89
2024-02-13T02:26:04.198Z,75.20
2024-02-13T02:28:31.086Z,75.13
2024-02-13T02:30:57.544Z,75.83
2024-02-13T02:33:24.207Z,75.32
2024-02-13T02:35:51.000Z,75.47
2024-02-13T02:38:17.854Z,75.80
2024-02-13T02:40:45.165Z,75.96
2024-02-13T02:43:11.664Z,75.82
2024-02-13T02:45:38.227Z,75.87
2024-02-13T02:48:05.082Z,76.02
2024-02-13T02:50:31.626Z,75.93
2024-02-13T02:52:59.061Z,75.84
2024-02-13T02:55:25.555Z,75.80
2024-02-13T02:57:54.372Z,75.72
2024-02-13T03:00:22.209Z,75.72
2024-02-13T03:02:49.205Z,75.94
2024-02-13T03:05:17.912Z,76.27
2024-02-13T03:07:47.739Z,76.85
2024-02-13T03:10:15.106Z,77.69
2024-02-13T03:12:42.135Z,78.33
2024-02-13T03:15:09.562Z,77.53
2024-02-13T03:17:40.253Z,76.95
2024-02-13T03:20:12.070Z,77.13
2024-02-13T03:22:39.603Z,76.90
2024-02-13T03:25:06.825Z,76.99
2024-02-13T03:27:33.416Z,77.04
2024-02-13T03:29:59.865Z,77.37
2024-02-13T03:32:27.225Z,77.26
2024-02-13T03:34:54.506Z,77.59
2024-02-13T03:37:21.278Z,77.59
2024-02-13T03:39:48.664Z,77.78
2024-02-13T03:42:17.144Z,78.08
2024-02-13T03:44:43.987Z,77.82
2024-02-13T03:47:10.516Z,77.70
2024-02-13T03:49:37.177Z,77.86
2024-02-13T03:52:04.442Z,77.60
2024-02-13T03:54:31.020Z,77.39
2024-02-13T03:56:58.221Z,77.30
2024-02-13T03:59:24.805Z,77.22
2024-02-13T04:01:51.440Z,77.40
2024-02-13T04:04:17.876Z,77.77
2024-02-13T04:06:44.376Z,77.74
2024-02-13T04:09:11.778Z,77.55
2024-02-13T04:11:38.566Z,77.73
2024-02-13T04:14:05.071Z,77.51
2024-02-13T04:16:31.847Z,77.56
2024-02-13T04:19:00.302Z,77.65
2024-02-13T04:21:27.036Z,77.55
2024-02-13T04:23:53.695Z,77.66
2024-02-13T04:26:30.533Z,77.68
2024-02-13T04:29:03.269Z,77.70
2024-02-13T04:31:29.922Z,77.47
2024-02-13T04:33:56.947Z,77.34
2024-02-13T04:36:24.322Z,77.07
2024-02-13T04:38:51.093Z,76.91
2024-02-13T04:41:19.601Z,77.14
2024-02-13T04:43:46.388Z,77.06
2024-02-13T04:46:13.202Z,76.94
2024-02-13T04:48:40.230Z,76.90
2024-02-13T04:51:07.069Z,77.21
2024-02-13T04:53:34.071Z,77.32
2024-02-13T04:56:00.834Z,77.37
2024-02-13T04:58:34.131Z,77.33
2024-02-13T05:01:06.379Z,77.11
2024-02-13T05:03:48.752Z,77.12
2024-02-13T05:06:34.617Z,77.12
2024-02-13T05:09:01.238Z,77.20
2024-02-13T05:11:27.686Z,77.07
2024-02-13T05:13:56.961Z,77.10
2024-02-13T05:16:28.062Z,77.07
2024-02-13T05:18:55.507Z,77.29
2024-02-13T05:21:22.685Z,77.50
2024-02-13T05:23:50.286Z,77.63
2024-02-13T05:26:21.523Z,77.21
2024-02-13T05:28:51.683Z,76.99
2024-02-13T05:31:20.320Z,77.35
2024-02-13T05:33:47.140Z,77.36
2024-02-13T05:36:13.796Z,77.55
2024-02-13T05:38:49.467Z,77.34
2024-02-13T05:41:16.879Z,77.22
2024-02-13T05:43:44.029Z,77.03
2024-02-13T05:46:10.707Z,76.94
2024-02-13T05:48:37.428Z,76.98
2024-02-13T05:51:10.297Z,77.23
2024-02-13T05:53:36.860Z,77.24
2024-02-13T05:56:05.338Z,77.96
2024-02-13T05:58:32.724Z,77.59
2024-02-13T06:00:59.493Z,77.76
2024-02-13T06:03:26.532Z,77.36
2024-02-13T06:05:55.603Z,77.11
2024-02-13T06:08:22.893Z,77.40
2024-02-13T06:10:49.484Z,77.21
2024-02-13T06:13:16.003Z,77.41
2024-02-13T06:15:42.701Z,77.65
2024-02-13T06:18:09.795Z,77.65
2024-02-13T06:20:37.240Z,77.49
2024-02-13T06:23:04.167Z,77.34
2024-02-13T06:25:31.663Z,76.84
2024-02-13T06:27:58.332Z,76.80
2024-02-13T06:30:24.978Z,77.02
2024-02-13T06:32:53.242Z,76.91
2024-02-13T06:35:20.062Z,77.23
2024-02-13T06:37:47.723Z,77.26
2024-02-13T06:40:14.820Z,76.90
2024-02-13T06:42:41.835Z,76.94
2024-02-13T06:45:11.567Z,76.90
2024-02-13T06:47:39.084Z,76.91
2024-02-13T06:50:13.313Z,77.13
2024-02-13T06:52:41.575Z,77.19
2024-02-13T06:55:12.425Z,76.74
2024-02-13T06:57:38.846Z,76.43
2024-02-13T07:00:12.852Z,76.95
2024-02-13T07:02:40.266Z,76.98
2024-02-13T07:05:07.523Z,76.86
2024-02-13T07:07:42.243Z,76.99
2024-02-13T07:10:14.172Z,76.99
2024-02-13T07:12:40.786Z,76.62
2024-02-13T07:15:08.388Z,76.72
2024-02-13T07:17:45.193Z,76.78
2024-02-13T07:20:20.326Z,76.65
2024-02-13T07:22:47.374Z,76.63
2024-02-13T07:25:16.458Z,76.64
2024-02-13T07:27:43.448Z,76.44
2024-02-13T07:30:12.785Z,76.66
2024-02-13T07:32:41.050Z,76.61
2024-02-13T07:35:08.214Z,76.66
2024-02-13T07:37:34.819Z,76.75
2024-02-13T07:40:02.573Z,76.73
2024-02-13T07:42:30.259Z,76.52
2024-02-13T07:44:58.433Z,76.17
2024-02-13T07:47:28.901Z,76.23
2024-02-13T07:49:56.174Z,76.30
2024-02-13T07:52:22.890Z,76.18
2024-02-13T07:54:49.714Z,76.15
2024-02-13T07:57:17.463Z,76.22
2024-02-13T07:59:44.860Z,76.01
2024-02-13T08:02:12.100Z,76.05
2024-02-13T08:04:38.847Z,75.79
2024-02-13T08:07:05.652Z,75.68
2024-02-13T08:09:35.340Z,75.52
2024-02-13T08:12:04.323Z,75.75
2024-02-13T08:14:31.994Z,75.31
2024-02-13T08:16:59.892Z,74.99
2024-02-13T08:19:27.619Z,74.98
2024-02-13T08:21:54.545Z,74.90
2024-02-13T08:24:22.340Z,74.49
2024-02-13T08:26:50.111Z,74.37
2024-02-13T08:29:17.237Z,74.15
2024-02-13T08:31:44.176Z,73.61
2024-02-13T08:34:11.440Z,73.19
2024-02-13T08:36:40.666Z,72.89
2024-02-13T08:39:07.581Z,73.33
2024-02-13T08:41:34.498Z,72.60
2024-02-13T08:44:01.493Z,71.63
2024-02-13T08:46:28.219Z,71.39
2024-02-13T08:48:55.172Z,71.43
2024-02-13T08:51:28.014Z,71.45
2024-02-13T08:53:55.046Z,70.15
2024-02-13T08:56:22.728Z,69.69
2024-02-13T08:58:53.409Z,68.71
2024-02-13T09:01:21.873Z,63.22
2024-02-13T09:03:49.793Z,56.62
2024-02-13T09:06:17.987Z,48.96
2024-02-13T09:08:46.124Z,42.87
2024-02-13T09:11:16.410Z,40.59
2024-02-13T09:13:43.516Z,36.58
2024-02-13T09:16:13.768Z,37.41
2024-02-13T09:18:42.357Z,32.89
2024-02-13T09:21:09.575Z,31.83
2024-02-13T09:23:36.591Z,31.06
2024-02-13T09:26:03.529Z,33.30
2024-02-13T09:28:30.134Z,35.12
2024-02-13T09:30:56.661Z,33.86
2024-02-13T09:33:24.666Z,33.14
2024-02-13T09:35:52.131Z,32.84
2024-02-13T09:38:19.384Z,31.44
2024-02-13T09:40:50.020Z,32.81
2024-02-13T09:43:17.186Z,30.83
2024-02-13T09:45:45.869Z,27.82
2024-02-13T09:48:24.641Z,28.10
2024-02-13T09:50:52.662Z,30.17
2024-02-13T09:53:29.154Z,30.24
2024-02-13T09:55:59.945Z,33.29
2024-02-13T09:58:27.449Z,34.72
2024-02-13T10:00:58.601Z,35.09
2024-02-13T10:03:28.644Z,33.47
2024-02-13T10:05:55.816Z,35.39
2024-02-13T10:08:29.073Z,35.05
2024-02-13T10:11:07.365Z,35.29
2024-02-13T10:13:43.772Z,36.58
2024-02-13T10:16:27.640Z,34.48
2024-02-13T10:18:55.926Z,31.11
2024-02-13T10:21:27.933Z,28.56
2024-02-13T10:24:15.610Z,28.04
2024-02-13T10:26:43.016Z,25.25
2024-02-13T10:29:10.220Z,24.08
2024-02-13T10:31:38.370Z,24.27
2024-02-13T10:34:08.801Z,22.82
2024-02-13T10:36:37.524Z,22.27
2024-02-13T10:39:10.017Z,21.82
2024-02-13T10:41:42.121Z,19.98
2024-02-13T10:44:14.497Z,19.63
2024-02-13T10:46:43.715Z,19.65
2024-02-13T10:49:34.950Z,19.84
2024-02-13T10:52:02.352Z,21.72
2024-02-13T10:54:30.468Z,21.46
2024-02-13T10:56:59.030Z,21.69
2024-02-13T10:59:29.532Z,24.30
2024-02-13T11:02:00.770Z,22.92
2024-02-13T11:04:28.935Z,22.27
2024-02-13T11:06:56.242Z,21.09
2024-02-13T11:09:23.001Z,21.30
2024-02-13T11:11:49.628Z,20.61
2024-02-13T11:14:23.986Z,20.86
2024-02-13T11:17:02.220Z,20.47
2024-02-13T11:19:49.751Z,20.25
2024-02-13T11:22:17.420Z,21.64
2024-02-13T11:24:54.144Z,23.57
2024-02-13T11:27:29.436Z,24.27
2024-02-13T11:30:04.245Z,24.95
2024-02-13T11:32:37.393Z,27.38
2024-02-13T11:35:10.635Z,28.77
2024-02-13T11:37:38.268Z,28.25
2024-02-13T11:40:06.671Z,26.70
2024-02-13T11:42:34.954Z,24.73
2024-02-13T11:45:02.993Z,22.32
2024-02-13T11:47:30.171Z,24.66
2024-02-13T11:49:57.333Z,26.79
2024-02-13T11:52:24.716Z,27.18
2024-02-13T11:54:52.347Z,24.39
2024-02-13T11:57:21.001Z,23.04
2024-02-13T12:00:06.557Z,21.79
2024-02-13T12:02:34.631Z,23.11
2024-02-13T12:05:01.535Z,25.46
2024-02-13T12:07:29.162Z,26.94
2024-02-13T12:09:56.294Z,25.70
2024-02-13T12:12:25.604Z,25.53
2024-02-13T12:14:54.486Z,24.28
2024-02-13T12:17:22.124Z,25.45
2024-02-13T12:19:49.475Z,24.35
2024-02-13T12:22:18.037Z,25.49
2024-02-13T12:24:46.874Z,23.95
2024-02-13T12:27:17.924Z,24.74
2024-02-13T12:29:45.059Z,25.75
2024-02-13T12:32:19.109Z,25.61
2024-02-13T12:34:51.853Z,27.09
2024-02-13T12:37:21.176Z,28.96
2024-02-13T12:39:48.902Z,31.31
2024-02-13T12:42:18.934Z,30.12
2024-02-13T12:44:46.239Z,27.87
2024-02-13T12:47:14.829Z,26.76
2024-02-13T12:49:44.890Z,24.99
2024-02-13T12:52:15.018Z,23.81
2024-02-13T12:54:41.740Z,22.81
2024-02-13T12:57:08.166Z,22.41
2024-02-13T12:59:39.438Z,23.23
2024-02-13T13:02:10.214Z,23.56
2024-02-13T13:04:37.250Z,23.54
2024-02-13T13:07:04.959Z,23.57
2024-02-13T13:09:32.459Z,22.64
2024-02-13T13:12:00.368Z,22.61
2024-02-13T13:14:29.509Z,21.86
2024-02-13T13:16:57.652Z,22.38
2024-02-13T13:19:28.620Z,21.01
2024-02-13T13:21:57.234Z,20.54
2024-02-13T13:24:24.346Z,21.25
2024-02-13T13:26:51.723Z,23.35
2024-02-13T13:29:18.855Z,24.90
2024-02-13T13:31:48.840Z,25.01
2024-02-13T13:34:24.434Z,24.37
2024-02-13T13:36:52.360Z,23.91
2024-02-13T13:39:18.966Z,23.37
2024-02-13T13:41:46.095Z,23.50
2024-02-13T13:44:15.029Z,24.22
2024-02-13T13:46:42.491Z,25.76
2024-02-13T13:49:10.801Z,27.03
2024-02-13T13:51:40.609Z,27.77
2024-02-13T13:54:07.691Z,29.17
2024-02-13T13:56:34.567Z,29.73
2024-02-13T13:59:01.194Z,30.85
2024-02-13T14:01:27.988Z,32.04
2024-02-13T14:03:56.714Z,33.58
2024-02-13T14:06:23.696Z,33.87
2024-02-13T14:08:50.337Z,35.03
2024-02-13T14:11:18.667Z,35.65
2024-02-13T14:13:45.883Z,36.94
2024-02-13T14:16:12.585Z,37.63
2024-02-13T14:18:39.705Z,38.20
2024-02-13T14:21:06.765Z,39.49
2024-02-13T14:23:33.295Z,41.12
2024-02-13T14:25:59.829Z,41.34
2024-02-13T14:28:26.290Z,42.53
2024-02-13T14:30:53.678Z,42.23
2024-02-13T14:33:21.704Z,42.90
2024-02-13T14:35:48.721Z,43.70
2024-02-13T14:38:16.912Z,44.03
2024-02-13T14:40:44.657Z,44.79
2024-02-13T14:43:14.490Z,45.64
2024-02-13T14:45:42.175Z,45.51
2024-02-13T14:48:15.016Z,45.84
2024-02-13T14:50:42.235Z,45.82
2024-02-13T14:53:10.081Z,46.44
2024-02-13T14:55:36.907Z,46.37
2024-02-13T14:58:14.575Z,46.19
2024-02-13T15:00:54.171Z,45.55
2024-02-13T15:03:26.021Z,45.54
2024-02-13T15:05:54.215Z,45.39
2024-02-13T15:08:21.392Z,45.20
2024-02-13T15:10:49.934Z,45.22
2024-02-13T15:13:17.324Z,45.09
2024-02-13T15:15:50.094Z,44.82
2024-02-13T15:18:18.053Z,45.04
2024-02-13T15:20:45.076Z,45.50
2024-02-13T15:23:13.838Z,45.80
2024-02-13T15:25:41.632Z,46.28
2024-02-13T15:28:08.542Z,46.39
2024-02-13T15:30:38.664Z,46.43
2024-02-13T15:33:06.555Z,46.62
2024-02-13T15:35:41.115Z,46.86
2024-02-13T15:38:27.215Z,46.86
2024-02-13T15:41:12.549Z,47.16
2024-02-13T15:43:57.896Z,47.79
2024-02-13T15:46:43.080Z,47.66
2024-02-13T15:49:12.963Z,47.73
2024-02-13T15:51:41.317Z,47.62
2024-02-13T15:54:10.222Z,47.95
2024-02-13T15:56:37.647Z,47.86
2024-02-13T15:59:04.896Z,48.00
2024-02-13T16:01:32.297Z,48.12
2024-02-13T16:04:03.022Z,48.33
2024-02-13T16:06:29.839Z,50.25
2024-02-13T16:08:57.235Z,49.46
2024-02-13T16:11:24.514Z,50.36
2024-02-13T16:13:51.647Z,50.21
2024-02-13T16:16:19.771Z,50.53
2024-02-13T16:18:49.308Z,50.37
2024-02-13T16:21:16.178Z,51.95
2024-02-13T16:23:42.924Z,52.81
2024-02-13T16:26:11.725Z,51.51
2024-02-13T16:28:38.931Z,50.97
2024-02-13T16:31:07.730Z,50.94
2024-02-13T16:33:35.299Z,51.00
2024-02-13T16:36:02.221Z,51.96
2024-02-13T16:38:29.471Z,53.58
2024-02-13T16:40:55.989Z,51.73
2024-02-13T16:43:22.995Z,51.63
2024-02-13T16:45:49.891Z,52.32
2024-02-13T16:48:18.001Z,52.09
2024-02-13T16:50:44.829Z,52.29
2024-02-13T16:53:11.333Z,52.51
2024-02-13T16:55:37.807Z,52.93
2024-02-13T16:58:06.360Z,53.10
2024-02-13T17:00:33.425Z,53.54
2024-02-13T17:03:00.826Z,53.98
2024-02-13T17:05:27.797Z,53.04
2024-02-13T17:07:54.701Z,53.63
2024-02-13T17:10:21.732Z,53.04
2024-02-13T17:12:48.342Z,53.26
2024-02-13T17:15:15.043Z,53.80
2024-02-13T17:17:46.221Z,54.16
2024-02-13T17:20:14.388Z,54.99
2024-02-13T17:22:42.592Z,55.95
2024-02-13T17:25:11.396Z,56.65
2024-02-13T17:27:39.126Z,55.80
2024-02-13T17:30:06.668Z,55.45
2024-02-13T17:32:33.651Z,55.24
2024-02-13T17:35:00.515Z,55.81
2024-02-13T17:37:27.231Z,54.75
2024-02-13T17:39:53.784Z,55.09
2024-02-13T17:42:20.282Z,57.20
2024-02-13T17:44:46.941Z,56.94
2024-02-13T17:47:13.658Z,57.99
2024-02-13T17:49:41.412Z,57.53
2024-02-13T17:52:10.267Z,56.39
2024-02-13T17:54:37.221Z,56.83
2024-02-13T17:57:04.668Z,57.01
2024-02-13T17:59:31.600Z,56.89
2024-02-13T18:01:58.368Z,57.18
2024-02-13T18:04:24.928Z,59.09
2024-02-13T18:06:52.301Z,59.11
2024-02-13T18:09:19.114Z,58.87
2024-02-13T18:11:45.800Z,59.17
2024-02-13T18:14:12.548Z,59.31
2024-02-13T18:16:40.616Z,58.38
2024-02-13T18:19:08.155Z,58.65
2024-02-13T18:21:34.988Z,58.17
2024-02-13T18:24:03.659Z,58.45
2024-02-13T18:26:30.412Z,58.01
2024-02-13T18:28:57.060Z,58.82
2024-02-13T18:31:25.136Z,58.84
2024-02-13T18:33:52.208Z,59.13
2024-02-13T18:36:19.670Z,59.40
2024-02-13T18:38:46.813Z,60.03
2024-02-13T18:41:13.314Z,59.35
2024-02-13T18:43:39.793Z,61.02
2024-02-13T18:46:07.735Z,62.92
2024-02-13T18:48:34.391Z,61.71
2024-02-13T18:51:02.385Z,63.15
2024-02-13T18:53:32.337Z,63.55
2024-02-13T18:55:58.924Z,63.09
2024-02-13T18:58:25.755Z,61.56
2024-02-13T19:00:52.548Z,61.66
2024-02-13T19:03:21.416Z,61.06
2024-02-13T19:05:52.076Z,62.40
2024-02-13T19:08:21.580Z,65.16
2024-02-13T19:10:49.797Z,63.37
2024-02-13T19:13:16.848Z,64.36
2024-02-13T19:15:43.420Z,63.00
2024-02-13T19:18:14.032Z,63.30
2024-02-13T19:20:40.731Z,63.23
2024-02-13T19:23:07.951Z,65.03
2024-02-13T19:25:34.560Z,63.88
2024-02-13T19:28:01.326Z,62.56
2024-02-13T19:30:29.486Z,65.43
2024-02-13T19:32:56.730Z,66.81
2024-02-13T19:35:23.377Z,67.01
2024-02-13T19:37:52.083Z,66.32
2024-02-13T19:40:19.991Z,68.04
2024-02-13T19:42:47.132Z,66.02
2024-02-13T19:45:14.544Z,64.47
2024-02-13T19:47:41.789Z,65.33
2024-02-13T19:50:08.782Z,64.93
2024-02-13T19:52:37.343Z,64.83
2024-02-13T19:55:06.967Z,65.15
2024-02-13T19:57:35.007Z,64.01
2024-02-13T20:00:04.215Z,63.97
2024-02-13T20:02:32.407Z,64.71
2024-02-13T20:04:59.065Z,66.39
2024-02-13T20:07:25.679Z,67.74
2024-02-13T20:09:52.539Z,67.70
2024-02-13T20:12:21.371Z,67.48
2024-02-13T20:14:48.341Z,65.77
2024-02-13T20:17:16.114Z,65.63
2024-02-13T20:19:43.128Z,65.89
2024-02-13T20:22:09.692Z,65.91
2024-02-13T20:24:38.806Z,66.36
2024-02-13T20:27:05.472Z,65.70
2024-02-13T20:29:32.284Z,65.29
2024-02-13T20:31:59.731Z,65.66
2024-02-13T20:34:28.492Z,65.33
2024-02-13T20:36:58.886Z,65.60
2024-02-13T20:39:25.422Z,65.50
2024-02-13T20:41:52.273Z,65.31
2024-02-13T20:44:18.805Z,65.08
2024-02-13T20:46:45.471Z,65.18
2024-02-13T20:49:13.957Z,65.15
2024-02-13T20:51:43.692Z,65.66
2024-02-13T20:54:13.607Z,65.52
2024-02-13T20:56:40.891Z,66.13
2024-02-13T20:59:09.685Z,65.97
2024-02-13T21:01:39.464Z,65.63
2024-02-13T21:04:08.368Z,66.69
2024-02-13T21:06:36.328Z,65.83
2024-02-13T21:09:03.692Z,65.94
2024-02-13T21:11:32.140Z,66.17
2024-02-13T21:14:00.084Z,67.25
2024-02-13T21:16:34.483Z,67.37
2024-02-13T21:19:02.415Z,66.67
2024-02-13T21:21:47.977Z,67.67
2024-02-13T21:24:14.705Z,68.17
2024-02-13T21:26:41.608Z,67.84
2024-02-13T21:29:08.967Z,67.73
2024-02-13T21:31:36.252Z,68.02
2024-02-13T21:34:07.357Z,67.95
2024-02-13T21:36:37.721Z,67.50
2024-02-13T21:39:09.174Z,67.53
2024-02-13T21:41:37.064Z,67.55
2024-02-13T21:44:04.703Z,67.06
2024-02-13T21:46:31.628Z,67.32
2024-02-13T21:48:58.605Z,67.22
2024-02-13T21:51:25.630Z,67.43
2024-02-13T21:53:52.182Z,67.58
2024-02-13T21:56:19.885Z,66.54
2024-02-13T21:58:46.673Z,66.47
2024-02-13T22:01:13.593Z,66.08
2024-02-13T22:03:41.798Z,67.14
2024-02-13T22:06:08.544Z,66.33
2024-02-13T22:08:36.299Z,66.18
2024-02-13T22:11:03.068Z,66.48
2024-02-13T22:13:29.754Z,66.69
2024-02-13T22:15:56.322Z,66.03
2024-02-13T22:18:25.835Z,67.31
2024-02-13T22:20:53.188Z,67.29
2024-02-13T22:23:19.790Z,67.21
2024-02-13T22:25:46.297Z,68.02
2024-02-13T22:28:13.937Z,67.95
2024-02-13T22:30:40.415Z,68.25
2024-02-13T22:33:08.370Z,68.58
2024-02-13T22:35:35.597Z,69.06
2024-02-13T22:38:04.441Z,68.79
2024-02-13T22:40:30.916Z,69.17
2024-02-13T22:42:57.364Z,68.09
2024-02-13T22:45:23.818Z,67.54
2024-02-13T22:48:02.095Z,68.59
2024-02-13T22:50:29.880Z,69.50
2024-02-13T22:52:59.515Z,69.40
2024-02-13T22:55:28.098Z,70.21
2024-02-13T22:57:54.619Z,70.28
2024-02-13T23:00:42.084Z,70.76
2024-02-13T23:03:09.368Z,71.04
2024-02-13T23:05:36.640Z,71.11
2024-02-13T23:08:07.986Z,70.75
2024-02-13T23:10:34.980Z,71.08
2024-02-13T23:13:01.463Z,71.59
2024-02-13T23:15:28.110Z,71.19
2024-02-13T23:17:54.863Z,71.62
2024-02-13T23:20:22.563Z,71.90
2024-02-13T23:22:51.370Z,71.48
2024-02-13T23:25:18.644Z,71.90
2024-02-13T23:27:45.081Z,71.85
2024-02-13T23:30:12.553Z,71.33
2024-02-13T23:32:39.173Z,71.85
2024-02-13T23:35:07.011Z,72.03
2024-02-13T23:37:35.269Z,72.21
2024-02-13T23:40:02.067Z,71.87
2024-02-13T23:42:28.699Z,71.74
2024-02-13T23:44:58.437Z,72.51
2024-02-13T23:47:25.162Z,73.19
2024-02-13T23:49:51.837Z,72.57
2024-02-13T23:52:18.458Z,72.47
2024-02-13T23:54:45.293Z,72.63
2024-02-13T23:57:12.066Z,72.01
2024-02-13T23:59:38.750Z,72.19
